createdAt,value
2018-12-24T00:00:59.655Z,101417.13
2018-12-24T00:03:50.289Z,101416.47
2018-12-24T00:06:40.655Z,101408.86
2018-12-24T00:09:31.378Z,101407.60
2018-12-24T00:12:24.565Z,101410.16
2018-12-24T00:15:14.769Z,101409.94
2018-12-24T00:18:06.599Z,101409.84
2018-12-24T00:20:56.735Z,101404.71
2018-12-24T00:23:47.126Z,101404.69
2018-12-24T00:26:37.737Z,101397.62
2018-12-24T00:29:28.451Z,101405.41
2018-12-24T00:32:19.019Z,101401.40
2018-12-24T00:35:09.683Z,101395.77
2018-12-24T00:38:00.082Z,101394.50
2018-12-24T00:40:50.850Z,101395.70
2018-12-24T00:43:41.444Z,101390.83
2018-12-24T00:46:32.227Z,101386.13
2018-12-24T00:49:22.582Z,101377.56
2018-12-24T00:52:13.279Z,101371.45
2018-12-24T00:55:03.872Z,101368.28
2018-12-24T00:57:54.407Z,101366.45
2018-12-24T01:00:45.015Z,101363.50
2018-12-24T01:03:35.634Z,101358.73
2018-12-24T01:06:26.219Z,101344.47
2018-12-24T01:09:16.678Z,101343.70
2018-12-24T01:12:07.258Z,101339.69
2018-12-24T01:14:58.333Z,101337.58
2018-12-24T01:17:48.771Z,101333.66
2018-12-24T01:20:39.662Z,101332.60
2018-12-24T01:23:30.252Z,101330.11
2018-12-24T01:26:20.709Z,101322.31
2018-12-24T01:29:11.332Z,101313.52
2018-12-24T01:32:01.880Z,101311.68
2018-12-24T01:34:52.329Z,101312.18
2018-12-24T01:37:42.841Z,101305.11
2018-12-24T01:40:33.260Z,101307.02
2018-12-24T01:43:23.969Z,101299.57
2018-12-24T01:46:14.485Z,101300.66
2018-12-24T01:49:05.182Z,101272.48
2018-12-24T01:51:56.193Z,101279.34
2018-12-24T01:54:49.489Z,101272.51
2018-12-24T01:57:41.014Z,101266.66
2018-12-24T02:00:31.311Z,101257.78
2018-12-24T02:03:22.134Z,101259.48
2018-12-24T02:06:12.506Z,101254.23
2018-12-24T02:09:03.102Z,101244.58
2018-12-24T02:11:56.416Z,101244.52
2018-12-24T02:14:46.915Z,101249.76
2018-12-24T02:17:37.451Z,101246.11
2018-12-24T02:20:28.084Z,101231.01
2018-12-24T02:23:18.474Z,101239.41
2018-12-24T02:26:08.987Z,101251.27
2018-12-24T02:28:59.691Z,101252.94
2018-12-24T02:31:50.605Z,101249.63
2018-12-24T02:34:41.171Z,101249.05
2018-12-24T02:37:31.916Z,101245.81
2018-12-24T02:40:22.821Z,101246.38
2018-12-24T02:43:13.852Z,101237.77
2018-12-24T02:46:04.517Z,101231.16
2018-12-24T02:48:55.052Z,101218.87
2018-12-24T02:51:45.601Z,101208.74
2018-12-24T02:54:35.922Z,101204.05
2018-12-24T02:57:26.691Z,101198.61
2018-12-24T03:00:16.989Z,101190.55
2018-12-24T03:03:07.627Z,101185.71
2018-12-24T03:05:58.106Z,101183.13
2018-12-24T03:08:48.903Z,101182.78
2018-12-24T03:11:39.538Z,101184.33
2018-12-24T03:14:30.091Z,101188.91
2018-12-24T03:17:20.365Z,101181.95
2018-12-24T03:20:11.076Z,101171.84
2018-12-24T03:23:01.492Z,101175.95
2018-12-24T03:25:52.197Z,101170.31
2018-12-24T03:28:42.742Z,101157.62
2018-12-24T03:31:33.417Z,101159.17
2018-12-24T03:34:24.099Z,101161.20
2018-12-24T03:37:14.810Z,101169.70
2018-12-24T03:40:05.708Z,101167.40
2018-12-24T03:42:56.305Z,101181.95
2018-12-24T03:45:46.874Z,101179.17
2018-12-24T03:48:37.835Z,101179.91
2018-12-24T03:51:31.141Z,101185.55
2018-12-24T03:54:21.746Z,101181.95
2018-12-24T03:57:12.481Z,101175.97
2018-12-24T04:00:03.295Z,101166.93
2018-12-24T04:02:55.034Z,101161.89
2018-12-24T04:05:45.594Z,101151.00
2018-12-24T04:08:35.830Z,101148.33
2018-12-24T04:11:26.512Z,101146.49
2018-12-24T04:14:16.696Z,101144.31
2018-12-24T04:17:07.368Z,101140.11
2018-12-24T04:19:57.785Z,101138.20
2018-12-24T04:22:48.565Z,101137.83
2018-12-24T04:25:42.066Z,101138.77
2018-12-24T04:28:34.393Z,101128.55
2018-12-24T04:31:24.809Z,101133.52
2018-12-24T04:34:15.333Z,101131.31
2018-12-24T04:37:05.899Z,101128.27
2018-12-24T04:39:56.634Z,101135.90
2018-12-24T04:42:47.198Z,101143.72
2018-12-24T04:45:37.607Z,101147.73
2018-12-24T04:48:28.292Z,101141.34
2018-12-24T04:51:18.869Z,101130.34
2018-12-24T04:54:09.484Z,101125.39
2018-12-24T04:57:00.066Z,101139.91
2018-12-24T04:59:50.217Z,101140.41
2018-12-24T05:02:40.579Z,101138.77
2018-12-24T05:05:31.419Z,101135.33
2018-12-24T05:08:22.152Z,101138.50
2018-12-24T05:11:12.561Z,101136.30
2018-12-24T05:14:03.348Z,101141.73
2018-12-24T05:16:53.942Z,101137.83
2018-12-24T05:19:44.970Z,101130.14
2018-12-24T05:22:35.821Z,101115.27
2018-12-24T05:25:26.664Z,101113.53
2018-12-24T05:28:17.186Z,101114.69
2018-12-24T05:31:07.842Z,101112.19
2018-12-24T05:33:58.233Z,101108.95
2018-12-24T05:36:49.045Z,101112.76
2018-12-24T05:39:39.645Z,101106.08
2018-12-24T05:42:30.435Z,101103.43
2018-12-24T05:45:21.894Z,101101.90
2018-12-24T05:48:12.789Z,101098.47
2018-12-24T05:51:05.143Z,101093.73
2018-12-24T05:53:55.875Z,101091.42
2018-12-24T05:56:46.518Z,101085.66
2018-12-24T05:59:37.177Z,101086.33
2018-12-24T06:02:27.602Z,101070.11
2018-12-24T06:05:18.262Z,101075.05
2018-12-24T06:08:08.716Z,101064.67
2018-12-24T06:10:59.021Z,101059.99
2018-12-24T06:13:57.747Z,101056.16
2018-12-24T06:16:41.699Z,101055.14
2018-12-24T06:19:32.101Z,101046.92
2018-12-24T06:22:22.695Z,101040.36
2018-12-24T06:25:12.794Z,101038.69
2018-12-24T06:28:03.362Z,101035.70
2018-12-24T06:30:54.054Z,101031.55
2018-12-24T06:33:44.676Z,101028.34
2018-12-24T06:36:35.401Z,101003.11
2018-12-24T06:39:26.604Z,101012.42
2018-12-24T06:42:18.278Z,101011.88
2018-12-24T06:45:09.197Z,100994.38
2018-12-24T06:47:59.805Z,100995.95
2018-12-24T06:50:50.290Z,100990.13
2018-12-24T06:53:40.691Z,100980.26
2018-12-24T06:56:31.173Z,100977.25
2018-12-24T06:59:21.450Z,100980.40
2018-12-24T07:02:14.860Z,100967.78
2018-12-24T07:05:05.240Z,100975.13
2018-12-24T07:07:55.953Z,100962.25
2018-12-24T07:10:46.637Z,100958.47
2018-12-24T07:13:37.090Z,100952.14
2018-12-24T07:16:27.833Z,100960.48
2018-12-24T07:19:18.224Z,100944.29
2018-12-24T07:22:08.924Z,100955.79
2018-12-24T07:24:59.994Z,100952.61
2018-12-24T07:27:50.857Z,100958.89
2018-12-24T07:30:41.427Z,100953.55
2018-12-24T07:33:32.214Z,100957.31
2018-12-24T07:36:23.453Z,100960.48
2018-12-24T07:39:14.210Z,100965.78
2018-12-24T07:42:05.264Z,100957.94
2018-12-24T07:44:56.386Z,100955.30
2018-12-24T07:47:47.304Z,100957.55
2018-12-24T07:50:38.251Z,100952.31
2018-12-24T07:53:29.590Z,100942.42
2018-12-24T07:56:20.960Z,100943.39
2018-12-24T07:59:12.293Z,100941.48
2018-12-24T08:02:03.325Z,100943.91
2018-12-24T08:04:54.407Z,100927.80
2018-12-24T08:07:45.718Z,100920.17
2018-12-24T08:10:36.720Z,100912.56
2018-12-24T08:13:27.665Z,100901.48
2018-12-24T08:16:19.034Z,100907.27
2018-12-24T08:19:09.332Z,100902.37
2018-12-24T08:22:00.294Z,100905.61
2018-12-24T08:24:50.991Z,100906.27
2018-12-24T08:27:41.495Z,100906.80
2018-12-24T08:30:32.033Z,100904.30
2018-12-24T08:33:25.002Z,100901.58
2018-12-24T08:36:15.327Z,100888.69
2018-12-24T08:39:07.592Z,100893.52
2018-12-24T08:41:58.353Z,100893.58
2018-12-24T08:44:48.744Z,100894.81
2018-12-24T08:47:39.263Z,100894.37
2018-12-24T08:50:29.904Z,100902.67
2018-12-24T08:53:23.061Z,100903.30
2018-12-24T08:56:13.586Z,100894.67
2018-12-24T08:59:04.279Z,100886.03
2018-12-24T09:01:54.996Z,100884.80
2018-12-24T09:04:45.760Z,100872.58
2018-12-24T09:07:36.286Z,100855.49
2018-12-24T09:10:27.045Z,100855.49
2018-12-24T09:13:17.903Z,100855.05
2018-12-24T09:16:08.009Z,100849.00
2018-12-24T09:18:59.886Z,100852.08
2018-12-24T09:21:50.011Z,100839.14
2018-12-24T09:24:40.678Z,100846.05
2018-12-24T09:27:30.937Z,100836.70
2018-12-24T09:30:22.361Z,100821.38
2018-12-24T09:33:16.435Z,100825.13
2018-12-24T09:36:06.940Z,100822.20
2018-12-24T09:38:57.395Z,100811.73
2018-12-24T09:41:48.168Z,100805.91
2018-12-24T09:44:38.745Z,100799.84
2018-12-24T09:47:29.253Z,100790.16
2018-12-24T09:50:20.878Z,100787.64
2018-12-24T09:53:11.538Z,100788.00
2018-12-24T09:56:04.137Z,100784.56
2018-12-24T09:58:55.983Z,100764.75
2018-12-24T10:01:46.352Z,100759.77
2018-12-24T10:04:45.319Z,100754.02
2018-12-24T10:07:40.410Z,100752.45
2018-12-24T10:10:31.876Z,100736.27
2018-12-24T10:13:22.329Z,100723.30
2018-12-24T10:16:12.959Z,100718.77
2018-12-24T10:19:03.602Z,100705.63
2018-12-24T10:21:54.256Z,100699.86
2018-12-24T10:24:44.533Z,100692.88
2018-12-24T10:27:35.255Z,100698.42
2018-12-24T10:30:26.033Z,100680.21
2018-12-24T10:33:17.025Z,100677.42
2018-12-24T10:36:07.457Z,100668.39
2018-12-24T10:38:58.202Z,100665.23
2018-12-24T10:41:48.596Z,100647.09
2018-12-24T10:44:38.945Z,100648.33
2018-12-24T10:47:29.854Z,100634.83
2018-12-24T10:50:20.283Z,100637.81
2018-12-24T10:53:10.934Z,100629.08
2018-12-24T10:56:01.225Z,100625.68
2018-12-24T10:58:52.111Z,100617.45
2018-12-24T11:01:44.680Z,100603.19
2018-12-24T11:04:34.499Z,100595.50
2018-12-24T11:07:25.321Z,100596.91
2018-12-24T11:10:15.874Z,100592.17
2018-12-24T11:13:09.913Z,100582.66
2018-12-24T11:16:00.822Z,100586.41
2018-12-24T11:18:51.427Z,100580.55
2018-12-24T11:21:42.348Z,100576.16
2018-12-24T11:24:33.045Z,100573.11
2018-12-24T11:27:24.053Z,100562.09
2018-12-24T11:30:14.923Z,100549.11
2018-12-24T11:33:05.298Z,100547.53
2018-12-24T11:35:56.057Z,100540.36
2018-12-24T11:38:46.770Z,100530.08
2018-12-24T11:41:38.436Z,100520.12
2018-12-24T11:44:28.883Z,100512.19
2018-12-24T11:47:19.171Z,100504.54
2018-12-24T11:50:09.890Z,100495.08
2018-12-24T11:53:00.398Z,100490.08
2018-12-24T11:55:50.735Z,100488.11
2018-12-24T11:58:41.530Z,100481.66
2018-12-24T12:01:32.242Z,100479.97
2018-12-24T12:04:23.073Z,100479.89
2018-12-24T12:07:13.746Z,100466.15
2018-12-24T12:10:03.979Z,100465.15
2018-12-24T12:12:55.054Z,100460.09
2018-12-24T12:15:45.814Z,100450.05
2018-12-24T12:18:36.343Z,100450.84
2018-12-24T12:21:26.617Z,100454.67
2018-12-24T12:24:16.815Z,100441.09
2018-12-24T12:27:07.718Z,100442.25
2018-12-24T12:29:58.319Z,100431.40
2018-12-24T12:32:48.808Z,100426.42
2018-12-24T12:35:39.689Z,100414.41
2018-12-24T12:38:30.482Z,100408.12
2018-12-24T12:41:21.210Z,100404.80
2018-12-24T12:44:11.429Z,100394.89
2018-12-24T12:47:01.989Z,100390.08
2018-12-24T12:49:52.778Z,100386.00
2018-12-24T12:52:43.659Z,100393.91
2018-12-24T12:55:34.343Z,100392.66
2018-12-24T12:58:25.289Z,100398.88
2018-12-24T13:01:17.679Z,100386.69
2018-12-24T13:04:08.050Z,100384.52
2018-12-24T13:07:00.228Z,100384.30
2018-12-24T13:09:50.891Z,100388.17
2018-12-24T13:12:41.491Z,100378.33
2018-12-24T13:15:32.029Z,100368.11
2018-12-24T13:18:22.836Z,100367.68
2018-12-24T13:21:13.569Z,100367.68
2018-12-24T13:24:04.286Z,100375.41
2018-12-24T13:26:54.872Z,100371.42
2018-12-24T13:29:45.417Z,100363.36
2018-12-24T13:32:37.041Z,100360.48
2018-12-24T13:35:27.662Z,100356.59
2018-12-24T13:38:18.080Z,100352.70
2018-12-24T13:41:08.818Z,100347.96
2018-12-24T13:43:59.630Z,100345.86
2018-12-24T13:46:49.936Z,100337.54
2018-12-24T13:49:41.635Z,100342.81
2018-12-24T13:52:32.447Z,100345.06
2018-12-24T13:55:23.930Z,100339.38
2018-12-24T13:58:14.781Z,100340.34
2018-12-24T14:01:05.126Z,100350.33
2018-12-24T14:03:56.014Z,100351.46
2018-12-24T14:06:46.557Z,100348.27
2018-12-24T14:09:36.889Z,100345.06
2018-12-24T14:12:27.263Z,100340.06
2018-12-24T14:15:17.708Z,100330.80
2018-12-24T14:18:08.326Z,100331.86
2018-12-24T14:20:58.809Z,100329.47
2018-12-24T14:23:49.456Z,100323.24
2018-12-24T14:26:40.169Z,100311.81
2018-12-24T14:29:30.460Z,100311.36
2018-12-24T14:32:20.972Z,100317.93
2018-12-24T14:35:11.593Z,100320.70
2018-12-24T14:38:02.282Z,100319.59
2018-12-24T14:40:52.990Z,100317.82
2018-12-24T14:43:43.389Z,100302.89
2018-12-24T14:46:33.995Z,100298.37
2018-12-24T14:49:24.677Z,100304.23
2018-12-24T14:52:15.958Z,100287.23
2018-12-24T14:55:06.261Z,100277.66
2018-12-24T14:57:57.100Z,100274.86
2018-12-24T15:00:47.790Z,100274.95
2018-12-24T15:03:38.465Z,100263.02
2018-12-24T15:06:29.265Z,100266.72
2018-12-24T15:09:19.937Z,100265.38
2018-12-24T15:12:10.643Z,100266.59
2018-12-24T15:15:04.550Z,100260.06
2018-12-24T15:17:55.209Z,100251.20
2018-12-24T15:20:45.951Z,100257.56
2018-12-24T15:23:36.834Z,100249.70
2018-12-24T15:26:27.864Z,100239.81
2018-12-24T15:29:18.381Z,100238.81
2018-12-24T15:32:09.064Z,100234.20
2018-12-24T15:34:59.473Z,100230.52
2018-12-24T15:37:49.639Z,100220.73
2018-12-24T15:40:40.083Z,100221.26
2018-12-24T15:43:30.721Z,100219.87
2018-12-24T15:46:21.359Z,100211.33
2018-12-24T15:49:11.854Z,100197.47
2018-12-24T15:52:04.261Z,100203.70
2018-12-24T15:54:56.619Z,100212.28
2018-12-24T15:57:46.772Z,100203.88
2018-12-24T16:00:37.131Z,100188.03
2018-12-24T16:03:28.007Z,100190.64
2018-12-24T16:06:18.740Z,100181.03
2018-12-24T16:09:09.691Z,100156.61
2018-12-24T16:12:00.337Z,100170.99
2018-12-24T16:14:50.730Z,100172.48
2018-12-24T16:17:41.157Z,100178.93
2018-12-24T16:20:32.062Z,100178.10
2018-12-24T16:23:22.446Z,100176.94
2018-12-24T16:26:13.201Z,100187.31
2018-12-24T16:29:04.090Z,100185.63
2018-12-24T16:31:54.491Z,100169.00
2018-12-24T16:34:45.069Z,100164.20
2018-12-24T16:37:35.951Z,100172.32
2018-12-24T16:40:26.755Z,100182.06
2018-12-24T16:43:17.557Z,100169.69
2018-12-24T16:46:08.257Z,100168.34
2018-12-24T16:48:58.529Z,100161.29
2018-12-24T16:51:48.749Z,100166.09
2018-12-24T16:54:39.233Z,100170.75
2018-12-24T16:57:29.647Z,100169.55
2018-12-24T17:00:20.134Z,100164.17
2018-12-24T17:03:10.545Z,100157.17
2018-12-24T17:06:01.056Z,100157.03
2018-12-24T17:08:51.500Z,100169.26
2018-12-24T17:11:44.066Z,100173.34
2018-12-24T17:14:34.457Z,100175.83
2018-12-24T17:17:25.215Z,100175.12
2018-12-24T17:20:15.951Z,100167.40
2018-12-24T17:23:06.806Z,100163.94
2018-12-24T17:25:57.555Z,100167.68
2018-12-24T17:28:47.951Z,100178.28
2018-12-24T17:31:38.233Z,100174.16
2018-12-24T17:34:31.339Z,100166.20
2018-12-24T17:37:23.104Z,100162.02
2018-12-24T17:40:13.585Z,100160.39
2018-12-24T17:43:04.011Z,100165.09
2018-12-24T17:45:54.532Z,100160.92
2018-12-24T17:48:45.307Z,100162.84
2018-12-24T17:51:35.735Z,100158.42
2018-12-24T17:54:26.211Z,100158.62
2018-12-24T17:57:16.793Z,100149.88
2018-12-24T18:00:07.812Z,100152.77
2018-12-24T18:02:58.413Z,100147.70
2018-12-24T18:05:49.221Z,100154.23
2018-12-24T18:08:40.039Z,100140.30
2018-12-24T18:11:32.541Z,100141.87
2018-12-24T18:14:25.368Z,100131.27
2018-12-24T18:17:15.959Z,100131.48
2018-12-24T18:20:06.678Z,100129.72
2018-12-24T18:22:57.156Z,100138.79
2018-12-24T18:25:47.867Z,100134.91
2018-12-24T18:28:38.383Z,100136.95
2018-12-24T18:31:29.190Z,100138.30
2018-12-24T18:34:19.752Z,100135.00
2018-12-24T18:37:10.417Z,100138.30
2018-12-24T18:40:01.017Z,100132.63
2018-12-24T18:42:51.560Z,100123.09
2018-12-24T18:45:42.316Z,100123.67
2018-12-24T18:48:33.070Z,100113.40
2018-12-24T18:51:23.932Z,100131.66
2018-12-24T18:54:14.948Z,100136.06
2018-12-24T18:57:05.231Z,100147.66
2018-12-24T18:59:55.603Z,100148.29
2018-12-24T19:02:46.216Z,100139.14
2018-12-24T19:05:37.077Z,100140.78
2018-12-24T19:08:28.926Z,100134.93
2018-12-24T19:11:19.246Z,100134.02
2018-12-24T19:14:09.952Z,100126.44
2018-12-24T19:17:00.677Z,100129.48
2018-12-24T19:19:51.145Z,100140.18
2018-12-24T19:22:41.609Z,100149.13
2018-12-24T19:25:34.393Z,100151.17
2018-12-24T19:28:25.167Z,100158.12
2018-12-24T19:31:15.748Z,100158.91
2018-12-24T19:34:06.234Z,100154.75
2018-12-24T19:36:57.004Z,100163.88
2018-12-24T19:39:47.775Z,100172.14
2018-12-24T19:42:38.480Z,100176.23
2018-12-24T19:45:29.004Z,100166.37
2018-12-24T19:48:19.647Z,100163.92
2018-12-24T19:51:10.306Z,100173.06
2018-12-24T19:54:00.567Z,100171.58
2018-12-24T19:56:50.873Z,100169.92
2018-12-24T19:59:41.376Z,100166.73
2018-12-24T20:02:31.892Z,100170.55
2018-12-24T20:05:22.905Z,100159.14
2018-12-24T20:08:14.006Z,100147.48
2018-12-24T20:11:06.667Z,100156.63
2018-12-24T20:13:57.096Z,100160.69
2018-12-24T20:16:47.769Z,100154.34
2018-12-24T20:19:38.062Z,100149.51
2018-12-24T20:22:28.323Z,100153.44
2018-12-24T20:25:18.616Z,100150.90
2018-12-24T20:28:09.030Z,100154.30
2018-12-24T20:30:59.741Z,100158.80
2018-12-24T20:33:50.425Z,100173.23
2018-12-24T20:36:41.115Z,100183.45
2018-12-24T20:39:31.641Z,100198.28
2018-12-24T20:42:25.073Z,100216.27
2018-12-24T20:45:15.427Z,100227.02
2018-12-24T20:48:06.812Z,100228.11
2018-12-24T20:50:57.824Z,100234.46
2018-12-24T20:53:48.680Z,100236.35
2018-12-24T20:56:39.480Z,100246.77
2018-12-24T20:59:30.001Z,100250.20
2018-12-24T21:02:20.502Z,100269.35
2018-12-24T21:05:11.287Z,100277.17
2018-12-24T21:08:02.155Z,100287.89
2018-12-24T21:10:52.855Z,100279.38
2018-12-24T21:13:43.376Z,100282.54
2018-12-24T21:16:33.951Z,100278.65
2018-12-24T21:19:26.566Z,100283.63
2018-12-24T21:22:17.000Z,100285.86
2018-12-24T21:25:07.574Z,100281.33
2018-12-24T21:27:59.978Z,100291.40
2018-12-24T21:30:50.846Z,100289.71
2018-12-24T21:33:41.634Z,100289.97
2018-12-24T21:36:32.200Z,100308.58
2018-12-24T21:39:23.098Z,100314.44
2018-12-24T21:42:13.672Z,100314.66
2018-12-24T21:45:04.459Z,100316.86
2018-12-24T21:47:54.943Z,100320.28
2018-12-24T21:50:45.666Z,100322.46
2018-12-24T21:53:35.863Z,100315.16
2018-12-24T21:56:26.544Z,100317.70
2018-12-24T21:59:17.421Z,100313.69
2018-12-24T22:02:07.856Z,100318.30
2018-12-24T22:05:02.248Z,100334.47
2018-12-24T22:07:52.637Z,100340.41
2018-12-24T22:10:43.188Z,100343.55
2018-12-24T22:13:33.693Z,100348.70
2018-12-24T22:16:24.315Z,100361.84
2018-12-24T22:19:17.023Z,100374.52
2018-12-24T22:22:07.537Z,100369.81
2018-12-24T22:24:58.381Z,100385.14
2018-12-24T22:27:49.004Z,100375.04
2018-12-24T22:30:40.704Z,100384.50
2018-12-24T22:33:31.610Z,100374.37
2018-12-24T22:36:22.312Z,100391.68
2018-12-24T22:39:12.910Z,100398.30
2018-12-24T22:42:03.488Z,100404.45
2018-12-24T22:44:54.014Z,100406.17
2018-12-24T22:47:44.748Z,100414.30
2018-12-24T22:50:35.401Z,100410.67
2018-12-24T22:53:25.974Z,100432.79
2018-12-24T22:56:16.413Z,100442.89
2018-12-24T22:59:07.242Z,100440.91
2018-12-24T23:01:58.065Z,100446.37
2018-12-24T23:04:48.725Z,100456.88
2018-12-24T23:07:39.320Z,100459.03
2018-12-24T23:10:29.902Z,100470.81
2018-12-24T23:13:20.702Z,100476.44
2018-12-24T23:16:11.203Z,100463.61
2018-12-24T23:19:01.907Z,100465.34
2018-12-24T23:21:52.301Z,100466.63
2018-12-24T23:24:42.861Z,100475.91
2018-12-24T23:27:34.848Z,100482.28
2018-12-24T23:30:25.494Z,100502.60
2018-12-24T23:33:15.905Z,100502.11
2018-12-24T23:36:07.987Z,100517.73
2018-12-24T23:38:58.281Z,100520.19
2018-12-24T23:41:48.777Z,100530.21
2018-12-24T23:44:39.538Z,100528.23
2018-12-24T23:47:29.932Z,100531.90
2018-12-24T23:50:20.682Z,100535.29
2018-12-24T23:53:11.372Z,100534.59
2018-12-24T23:56:04.147Z,100533.73
2018-12-24T23:58:54.886Z,100554.88
